createdAt,value
2022-12-26T00:00:57.428Z,100.00
2022-12-26T00:03:24.639Z,100.00
2022-12-26T00:05:51.605Z,100.00
2022-12-26T00:08:18.735Z,100.00
2022-12-26T00:10:45.583Z,99.84
2022-12-26T00:13:39.837Z,100.00
2022-12-26T00:15:59.553Z,100.00
2022-12-26T00:18:26.514Z,100.00
2022-12-26T00:20:53.801Z,100.00
2022-12-26T00:23:20.689Z,98.96
2022-12-26T00:25:47.616Z,99.49
2022-12-26T00:28:14.630Z,100.00
2022-12-26T00:30:41.540Z,100.00
2022-12-26T00:33:08.379Z,98.54
2022-12-26T00:35:35.280Z,98.54
2022-12-26T00:38:02.252Z,98.06
2022-12-26T00:40:29.665Z,98.99
2022-12-26T00:42:56.572Z,98.41
2022-12-26T00:45:23.520Z,99.83
2022-12-26T00:47:50.434Z,98.79
2022-12-26T00:50:17.774Z,96.88
2022-12-26T00:52:44.617Z,94.90
2022-12-26T00:55:11.492Z,91.93
2022-12-26T00:57:38.390Z,91.53
2022-12-26T01:00:05.933Z,94.39
2022-12-26T01:02:38.736Z,94.06
2022-12-26T01:05:09.425Z,92.47
2022-12-26T01:08:21.561Z,94.08
2022-12-26T01:10:24.733Z,90.77
2022-12-26T01:12:52.091Z,90.22
2022-12-26T01:15:19.619Z,90.00
2022-12-26T01:17:47.296Z,89.21
2022-12-26T01:20:14.342Z,90.91
2022-12-26T01:22:41.362Z,92.09
2022-12-26T01:25:08.931Z,90.92
2022-12-26T01:27:35.829Z,90.46
2022-12-26T01:30:02.940Z,90.17
2022-12-26T01:32:29.829Z,92.48
2022-12-26T01:34:56.895Z,92.49
2022-12-26T01:37:24.058Z,93.33
2022-12-26T01:39:52.398Z,92.56
2022-12-26T01:42:22.093Z,91.70
2022-12-26T01:45:07.168Z,92.45
2022-12-26T01:47:51.782Z,93.81
2022-12-26T01:50:27.789Z,93.07
2022-12-26T01:52:58.646Z,92.21
2022-12-26T01:55:27.016Z,91.38
2022-12-26T01:58:05.517Z,92.42
2022-12-26T02:00:33.571Z,93.36
2022-12-26T02:03:19.236Z,93.89
2022-12-26T02:05:46.416Z,99.45
2022-12-26T02:08:17.417Z,97.94
2022-12-26T02:10:55.807Z,97.90
2022-12-26T02:13:24.004Z,99.23
2022-12-26T02:15:50.947Z,97.17
2022-12-26T02:18:17.974Z,98.17
2022-12-26T02:21:10.014Z,100.00
2022-12-26T02:23:55.360Z,99.05
2022-12-26T02:26:40.093Z,97.13
2022-12-26T02:29:12.924Z,96.96
2022-12-26T02:32:05.840Z,96.73
2022-12-26T02:34:56.813Z,95.67
2022-12-26T02:37:35.694Z,97.18
2022-12-26T02:40:17.828Z,95.82
2022-12-26T02:42:47.879Z,94.52
2022-12-26T02:45:36.418Z,94.36
2022-12-26T02:48:13.632Z,96.87
2022-12-26T02:51:39.570Z,96.16
2022-12-26T02:54:38.062Z,96.18
2022-12-26T02:57:27.425Z,96.74
2022-12-26T03:00:36.120Z,98.87
2022-12-26T03:03:28.166Z,98.45
2022-12-26T03:06:19.544Z,99.43
2022-12-26T03:09:06.849Z,99.98
2022-12-26T03:11:58.211Z,99.46
2022-12-26T03:14:57.357Z,99.29
2022-12-26T03:17:32.628Z,98.12
2022-12-26T03:20:11.325Z,98.94
2022-12-26T03:22:49.234Z,97.25
2022-12-26T03:25:55.694Z,95.35
2022-12-26T03:28:23.473Z,93.36
2022-12-26T03:30:52.088Z,91.73
2022-12-26T03:33:45.933Z,91.10
2022-12-26T03:36:41.699Z,89.60
2022-12-26T03:39:47.028Z,91.10
2022-12-26T03:43:15.579Z,93.15
2022-12-26T03:46:22.890Z,94.16
2022-12-26T03:49:29.694Z,95.51
2022-12-26T03:52:28.749Z,95.16
2022-12-26T03:55:40.294Z,93.81
2022-12-26T03:59:09.030Z,94.63
2022-12-26T04:01:58.389Z,96.29
2022-12-26T04:04:48.040Z,95.30
2022-12-26T04:07:56.002Z,94.85
2022-12-26T04:10:50.007Z,93.71
2022-12-26T04:13:40.620Z,93.87
2022-12-26T04:16:36.640Z,92.66
2022-12-26T04:19:35.400Z,93.94
2022-12-26T04:22:29.652Z,91.13
2022-12-26T04:25:50.251Z,88.18
2022-12-26T04:28:38.545Z,86.99
2022-12-26T04:31:41.266Z,91.29
2022-12-26T04:34:34.204Z,93.66
2022-12-26T04:37:23.372Z,95.40
2022-12-26T04:40:13.090Z,96.54
2022-12-26T04:43:02.346Z,98.08
2022-12-26T04:45:49.801Z,99.22
2022-12-26T04:48:36.344Z,99.42
2022-12-26T04:51:03.128Z,95.47
2022-12-26T04:53:29.985Z,93.52
2022-12-26T04:55:56.980Z,91.91
2022-12-26T04:58:24.481Z,95.18
2022-12-26T05:00:51.408Z,99.12
2022-12-26T05:03:36.800Z,100.00
2022-12-26T05:06:22.059Z,100.00
2022-12-26T05:09:07.665Z,98.24
2022-12-26T05:11:35.566Z,95.67
2022-12-26T05:14:02.735Z,96.62
2022-12-26T05:16:48.249Z,97.24
2022-12-26T05:19:35.792Z,100.00
2022-12-26T05:22:23.280Z,99.92
2022-12-26T05:25:08.967Z,99.51
2022-12-26T05:27:56.911Z,97.37
2022-12-26T05:30:24.889Z,95.33
2022-12-26T05:33:10.239Z,96.64
2022-12-26T05:35:37.899Z,97.68
2022-12-26T05:38:05.134Z,98.07
2022-12-26T05:40:32.371Z,97.71
2022-12-26T05:42:59.310Z,98.06
2022-12-26T05:45:26.371Z,98.20
2022-12-26T05:48:00.954Z,96.58
2022-12-26T05:50:28.870Z,96.34
2022-12-26T05:52:59.692Z,93.68
2022-12-26T05:55:26.763Z,89.90
2022-12-26T05:57:53.808Z,86.26
2022-12-26T06:00:21.378Z,81.09
2022-12-26T06:02:48.889Z,76.07
2022-12-26T06:05:16.149Z,76.82
2022-12-26T06:07:43.081Z,72.93
2022-12-26T06:10:10.581Z,68.10
2022-12-26T06:12:37.517Z,64.02
2022-12-26T06:15:04.814Z,62.30
2022-12-26T06:17:32.030Z,58.94
2022-12-26T06:19:58.952Z,57.29
2022-12-26T06:22:25.966Z,58.22
2022-12-26T06:24:52.866Z,58.06
2022-12-26T06:27:19.720Z,53.14
2022-12-26T06:29:46.650Z,53.43
2022-12-26T06:32:13.588Z,52.49
2022-12-26T06:34:40.614Z,53.15
2022-12-26T06:37:07.648Z,51.96
2022-12-26T06:39:34.699Z,50.95
2022-12-26T06:42:01.649Z,52.40
2022-12-26T06:44:28.535Z,54.96
2022-12-26T06:46:55.393Z,58.07
2022-12-26T06:49:26.207Z,61.71
2022-12-26T06:51:55.664Z,63.12
2022-12-26T06:54:22.690Z,64.78
2022-12-26T06:56:49.555Z,61.87
2022-12-26T06:59:16.432Z,58.95
2022-12-26T07:01:43.423Z,57.27
2022-12-26T07:04:13.331Z,58.32
2022-12-26T07:06:40.329Z,54.20
2022-12-26T07:09:11.033Z,54.38
2022-12-26T07:11:40.509Z,52.38
2022-12-26T07:14:08.261Z,52.58
2022-12-26T07:16:36.433Z,56.16
2022-12-26T07:19:04.533Z,56.14
2022-12-26T07:21:37.988Z,55.84
2022-12-26T07:24:09.054Z,53.96
2022-12-26T07:26:35.992Z,49.72
2022-12-26T07:29:02.924Z,44.27
2022-12-26T07:31:29.899Z,40.57
2022-12-26T07:33:57.271Z,36.23
2022-12-26T07:36:25.359Z,38.00
2022-12-26T07:38:52.643Z,37.11
2022-12-26T07:41:38.494Z,36.44
2022-12-26T07:44:06.311Z,36.15
2022-12-26T07:46:34.155Z,33.89
2022-12-26T07:49:01.509Z,29.89
2022-12-26T07:51:28.463Z,28.82
2022-12-26T07:53:55.364Z,30.16
2022-12-26T07:56:22.286Z,31.31
2022-12-26T07:58:50.411Z,35.12
2022-12-26T08:01:17.914Z,34.66
2022-12-26T08:03:45.216Z,34.18
2022-12-26T08:06:12.222Z,33.50
2022-12-26T08:08:40.330Z,32.08
2022-12-26T08:11:15.423Z,31.33
2022-12-26T08:13:42.478Z,31.04
2022-12-26T08:16:12.204Z,30.79
2022-12-26T08:18:39.211Z,30.71
2022-12-26T08:21:06.115Z,30.33
2022-12-26T08:23:33.978Z,29.18
2022-12-26T08:26:06.117Z,29.11
2022-12-26T08:28:33.102Z,29.63
2022-12-26T08:31:00.452Z,30.49
2022-12-26T08:33:27.932Z,30.78
2022-12-26T08:35:54.952Z,29.44
2022-12-26T08:38:21.845Z,28.15
2022-12-26T08:40:56.472Z,28.54
2022-12-26T08:44:03.000Z,31.49
2022-12-26T08:46:13.094Z,34.60
2022-12-26T08:48:41.195Z,35.88
2022-12-26T08:51:12.634Z,40.53
2022-12-26T08:53:39.846Z,39.28
2022-12-26T08:56:08.658Z,41.29
2022-12-26T08:58:35.744Z,39.94
2022-12-26T09:01:08.205Z,38.69
2022-12-26T09:03:35.259Z,40.21
2022-12-26T09:06:06.221Z,40.70
2022-12-26T09:08:35.063Z,41.43
2022-12-26T09:11:04.376Z,41.96
2022-12-26T09:13:32.825Z,38.62
2022-12-26T09:16:12.185Z,38.66
2022-12-26T09:18:40.023Z,38.25
2022-12-26T09:21:10.079Z,35.98
2022-12-26T09:23:38.291Z,35.37
2022-12-26T09:26:07.714Z,32.92
2022-12-26T09:28:35.291Z,30.57
2022-12-26T09:31:07.788Z,31.67
2022-12-26T09:33:37.774Z,30.67
2022-12-26T09:36:14.581Z,28.17
2022-12-26T09:38:43.198Z,28.94
2022-12-26T09:41:22.117Z,28.34
2022-12-26T09:43:59.826Z,27.92
2022-12-26T09:46:26.698Z,27.73
2022-12-26T09:49:03.485Z,27.24
2022-12-26T09:51:33.554Z,27.23
2022-12-26T09:54:04.669Z,27.43
2022-12-26T09:57:01.666Z,29.67
2022-12-26T09:59:26.248Z,29.63
2022-12-26T10:01:53.916Z,30.45
2022-12-26T10:04:30.550Z,29.82
2022-12-26T10:07:16.587Z,28.24
2022-12-26T10:10:10.680Z,27.94
2022-12-26T10:13:07.854Z,29.08
2022-12-26T10:15:52.458Z,31.56
2022-12-26T10:18:40.248Z,31.94
2022-12-26T10:21:28.765Z,32.01
2022-12-26T10:24:03.303Z,30.09
2022-12-26T10:26:35.301Z,30.28
2022-12-26T10:29:04.691Z,30.37
2022-12-26T10:31:48.273Z,28.30
2022-12-26T10:34:15.180Z,27.49
2022-12-26T10:36:50.930Z,28.32
2022-12-26T10:39:33.798Z,26.24
2022-12-26T10:42:11.199Z,26.27
2022-12-26T10:44:40.628Z,26.29
2022-12-26T10:47:19.875Z,27.37
2022-12-26T10:49:48.521Z,30.07
2022-12-26T10:52:18.562Z,30.39
2022-12-26T10:54:51.581Z,30.62
2022-12-26T10:57:41.545Z,31.84
2022-12-26T11:00:25.989Z,29.85
2022-12-26T11:03:08.908Z,30.21
2022-12-26T11:06:06.466Z,29.93
2022-12-26T11:08:40.736Z,30.54
2022-12-26T11:11:46.289Z,30.64
2022-12-26T11:14:40.442Z,28.09
2022-12-26T11:17:34.265Z,31.69
2022-12-26T11:20:10.755Z,34.43
2022-12-26T11:22:38.629Z,36.60
2022-12-26T11:25:14.805Z,36.56
2022-12-26T11:27:45.665Z,37.80
2022-12-26T11:30:19.323Z,37.78
2022-12-26T11:33:08.396Z,37.41
2022-12-26T11:35:48.610Z,35.35
2022-12-26T11:38:39.104Z,37.86
2022-12-26T11:41:31.764Z,39.65
2022-12-26T11:44:14.122Z,40.05
2022-12-26T11:46:55.894Z,40.98
2022-12-26T11:49:34.514Z,42.50
2022-12-26T11:52:23.139Z,41.91
2022-12-26T11:54:51.364Z,41.53
2022-12-26T11:57:28.310Z,41.04
2022-12-26T11:59:55.868Z,41.17
2022-12-26T12:02:31.130Z,41.53
2022-12-26T12:05:02.764Z,42.11
2022-12-26T12:07:38.757Z,40.58
2022-12-26T12:10:35.584Z,41.38
2022-12-26T12:13:24.081Z,41.57
2022-12-26T12:16:00.114Z,42.60
2022-12-26T12:18:47.291Z,43.09
2022-12-26T12:22:00.905Z,41.78
2022-12-26T12:24:36.833Z,42.60
2022-12-26T12:27:38.386Z,42.06
2022-12-26T12:30:20.622Z,42.09
2022-12-26T12:33:06.059Z,40.84
2022-12-26T12:35:41.862Z,42.42
2022-12-26T12:38:27.625Z,43.37
2022-12-26T12:41:22.507Z,43.65
2022-12-26T12:43:52.308Z,43.66
2022-12-26T12:46:53.190Z,44.27
2022-12-26T12:49:28.758Z,43.47
2022-12-26T12:52:28.982Z,46.36
2022-12-26T12:55:01.542Z,46.94
2022-12-26T12:57:51.246Z,46.00
2022-12-26T13:00:21.827Z,47.13
2022-12-26T13:03:12.008Z,47.80
2022-12-26T13:05:44.821Z,47.41
2022-12-26T13:08:22.655Z,48.77
2022-12-26T13:10:58.228Z,49.48
2022-12-26T13:13:29.899Z,45.27
2022-12-26T13:16:03.806Z,45.01
2022-12-26T13:18:37.878Z,47.18
2022-12-26T13:21:11.790Z,49.13
2022-12-26T13:24:04.311Z,51.81
2022-12-26T13:26:49.044Z,49.50
2022-12-26T13:29:44.761Z,49.76
2022-12-26T13:32:41.924Z,51.84
2022-12-26T13:35:49.260Z,53.43
2022-12-26T13:38:16.313Z,55.00
2022-12-26T13:40:50.021Z,57.69
2022-12-26T13:43:42.517Z,56.70
2022-12-26T13:46:51.346Z,55.86
2022-12-26T13:49:36.627Z,56.14
2022-12-26T13:52:12.427Z,58.14
2022-12-26T13:54:48.353Z,61.92
2022-12-26T13:57:40.338Z,60.64
2022-12-26T14:00:09.624Z,61.46
2022-12-26T14:03:17.206Z,62.39
2022-12-26T14:06:05.120Z,62.43
2022-12-26T14:08:39.992Z,62.44
2022-12-26T14:11:16.211Z,64.22
2022-12-26T14:14:19.881Z,65.08
2022-12-26T14:16:46.760Z,68.59
2022-12-26T14:19:35.015Z,70.65
2022-12-26T14:22:36.648Z,71.70
2022-12-26T14:25:26.878Z,73.52
2022-12-26T14:28:10.795Z,72.97
2022-12-26T14:30:50.072Z,72.67
2022-12-26T14:33:46.898Z,71.48
2022-12-26T14:36:26.414Z,72.26
2022-12-26T14:39:19.569Z,71.57
2022-12-26T14:42:26.682Z,75.21
2022-12-26T14:44:59.021Z,76.90
2022-12-26T14:47:48.039Z,77.73
2022-12-26T14:50:33.203Z,77.80
2022-12-26T14:53:27.704Z,78.21
2022-12-26T14:56:14.397Z,78.60
2022-12-26T14:58:48.237Z,79.61
2022-12-26T15:01:18.680Z,80.21
2022-12-26T15:04:16.770Z,79.18
2022-12-26T15:06:46.613Z,78.00
2022-12-26T15:09:25.778Z,78.05
2022-12-26T15:12:27.590Z,78.82
2022-12-26T15:15:19.319Z,79.25
2022-12-26T15:18:04.103Z,81.81
2022-12-26T15:21:01.283Z,81.48
2022-12-26T15:23:58.527Z,81.57
2022-12-26T15:26:44.197Z,82.08
2022-12-26T15:29:29.321Z,80.76
2022-12-26T15:32:04.545Z,80.46
2022-12-26T15:34:36.751Z,79.59
2022-12-26T15:37:18.428Z,81.22
2022-12-26T15:40:03.419Z,83.92
2022-12-26T15:42:36.292Z,87.33
2022-12-26T15:45:27.724Z,88.07
2022-12-26T15:48:13.714Z,90.61
2022-12-26T15:51:05.497Z,89.13
2022-12-26T15:53:44.301Z,88.97
2022-12-26T15:56:23.527Z,89.96
2022-12-26T15:59:09.146Z,89.26
2022-12-26T16:01:40.216Z,88.90
2022-12-26T16:04:17.926Z,88.52
2022-12-26T16:07:15.001Z,90.25
2022-12-26T16:09:44.008Z,89.91
2022-12-26T16:12:23.233Z,89.98
2022-12-26T16:14:51.125Z,89.91
2022-12-26T16:17:21.947Z,91.63
2022-12-26T16:19:51.486Z,92.78
2022-12-26T16:22:44.597Z,92.09
2022-12-26T16:25:26.615Z,92.09
2022-12-26T16:27:56.810Z,90.31
2022-12-26T16:30:44.094Z,88.70
2022-12-26T16:33:14.857Z,90.21
2022-12-26T16:35:43.210Z,90.25
2022-12-26T16:38:17.033Z,88.30
2022-12-26T16:40:44.916Z,86.54
2022-12-26T16:43:17.874Z,87.28
2022-12-26T16:45:48.152Z,86.06
2022-12-26T16:48:18.659Z,84.68
2022-12-26T16:50:55.129Z,85.22
2022-12-26T16:53:43.135Z,85.11
2022-12-26T16:56:25.161Z,85.36
2022-12-26T16:59:04.661Z,85.87
2022-12-26T17:01:33.338Z,87.16
2022-12-26T17:04:26.234Z,87.40
2022-12-26T17:07:08.124Z,86.79
2022-12-26T17:09:49.831Z,86.39
2022-12-26T17:12:24.371Z,86.65
2022-12-26T17:14:53.279Z,88.25
2022-12-26T17:17:23.187Z,86.58
2022-12-26T17:19:54.388Z,87.05
2022-12-26T17:22:32.155Z,89.38
2022-12-26T17:25:17.453Z,88.25
2022-12-26T17:27:45.667Z,87.35
2022-12-26T17:30:32.361Z,87.42
2022-12-26T17:33:22.295Z,87.42
2022-12-26T17:36:52.508Z,86.22
2022-12-26T17:38:45.057Z,85.79
2022-12-26T17:41:15.959Z,87.70
2022-12-26T17:43:43.949Z,87.30
2022-12-26T17:46:13.882Z,87.17
2022-12-26T17:48:42.188Z,86.38
2022-12-26T17:51:15.803Z,85.69
2022-12-26T17:53:47.482Z,85.74
2022-12-26T17:56:17.997Z,86.33
2022-12-26T17:58:44.979Z,86.15
2022-12-26T18:01:17.516Z,85.83
2022-12-26T18:03:47.557Z,86.16
2022-12-26T18:06:17.444Z,86.14
2022-12-26T18:08:44.603Z,85.21
2022-12-26T18:11:14.054Z,88.25
2022-12-26T18:13:41.969Z,88.01
2022-12-26T18:16:18.821Z,88.45
2022-12-26T18:18:47.454Z,88.73
2022-12-26T18:21:15.875Z,88.93
2022-12-26T18:23:43.336Z,88.29
2022-12-26T18:26:26.515Z,86.90
2022-12-26T18:28:54.240Z,86.53
2022-12-26T18:31:21.859Z,89.17
2022-12-26T18:33:48.907Z,87.24
2022-12-26T18:36:17.380Z,85.63
2022-12-26T18:38:44.775Z,84.95
2022-12-26T18:41:16.680Z,86.05
2022-12-26T18:43:43.666Z,85.48
2022-12-26T18:46:30.945Z,84.72
2022-12-26T18:48:58.153Z,84.48
2022-12-26T18:51:26.446Z,85.57
2022-12-26T18:53:53.999Z,84.32
2022-12-26T18:56:23.001Z,84.14
2022-12-26T18:58:57.158Z,84.17
2022-12-26T19:01:25.415Z,84.13
2022-12-26T19:03:53.964Z,84.34
2022-12-26T19:06:26.770Z,84.04
2022-12-26T19:08:53.801Z,84.44
2022-12-26T19:11:20.992Z,83.95
2022-12-26T19:13:48.019Z,83.13
2022-12-26T19:16:15.025Z,83.65
2022-12-26T19:18:42.002Z,83.64
2022-12-26T19:21:15.988Z,84.58
2022-12-26T19:23:46.847Z,86.04
2022-12-26T19:26:16.396Z,85.78
2022-12-26T19:28:43.421Z,85.92
2022-12-26T19:31:15.258Z,86.11
2022-12-26T19:33:42.554Z,84.76
2022-12-26T19:36:10.164Z,84.69
2022-12-26T19:38:37.646Z,84.25
2022-12-26T19:41:13.993Z,84.45
2022-12-26T19:43:41.342Z,84.35
2022-12-26T19:46:11.471Z,85.07
2022-12-26T19:48:39.491Z,86.51
2022-12-26T19:51:09.292Z,86.85
2022-12-26T19:53:37.401Z,87.87
2022-12-26T19:56:13.574Z,88.66
2022-12-26T19:58:40.916Z,89.89
2022-12-26T20:01:13.399Z,90.53
2022-12-26T20:03:41.248Z,91.21
2022-12-26T20:06:15.829Z,90.78
2022-12-26T20:08:43.807Z,90.96
2022-12-26T20:11:13.888Z,90.90
2022-12-26T20:13:42.779Z,91.85
2022-12-26T20:16:46.032Z,91.77
2022-12-26T20:19:03.399Z,90.82
2022-12-26T20:21:30.429Z,90.09
2022-12-26T20:23:58.852Z,90.66
2022-12-26T20:26:26.485Z,90.43
2022-12-26T20:28:57.344Z,90.77
2022-12-26T20:31:24.474Z,91.15
2022-12-26T20:33:52.556Z,90.98
2022-12-26T20:36:25.526Z,91.00
2022-12-26T20:38:54.468Z,91.38
2022-12-26T20:41:21.486Z,90.84
2022-12-26T20:43:49.625Z,90.32
2022-12-26T20:46:25.441Z,91.65
2022-12-26T20:48:53.021Z,90.84
2022-12-26T20:51:23.391Z,93.43
2022-12-26T20:53:51.799Z,92.47
2022-12-26T20:56:19.167Z,92.29
2022-12-26T20:58:46.380Z,92.23
2022-12-26T21:01:19.371Z,91.06
2022-12-26T21:03:47.238Z,91.43
2022-12-26T21:06:23.363Z,91.41
2022-12-26T21:08:51.944Z,90.77
2022-12-26T21:11:26.260Z,91.03
2022-12-26T21:14:00.570Z,92.54
2022-12-26T21:16:37.267Z,91.90
2022-12-26T21:19:09.353Z,91.08
2022-12-26T21:21:41.040Z,90.59
2022-12-26T21:24:13.079Z,89.81
2022-12-26T21:26:42.162Z,91.47
2022-12-26T21:29:14.028Z,89.08
2022-12-26T21:31:41.554Z,88.43
2022-12-26T21:34:08.937Z,88.11
2022-12-26T21:36:36.340Z,86.42
2022-12-26T21:39:09.154Z,85.92
2022-12-26T21:41:39.112Z,89.98
2022-12-26T21:44:06.046Z,92.03
2022-12-26T21:46:34.246Z,92.64
2022-12-26T21:49:01.366Z,91.79
2022-12-26T21:51:29.821Z,92.95
2022-12-26T21:54:16.650Z,90.42
2022-12-26T21:56:43.676Z,91.22
2022-12-26T21:59:29.343Z,91.16
2022-12-26T22:01:56.692Z,91.57
2022-12-26T22:04:23.905Z,98.51
2022-12-26T22:06:52.978Z,100.00
2022-12-26T22:09:19.911Z,100.00
2022-12-26T22:12:06.170Z,100.00
2022-12-26T22:14:34.634Z,100.00
2022-12-26T22:17:01.637Z,100.00
2022-12-26T22:19:28.673Z,100.00
2022-12-26T22:21:55.686Z,97.62
2022-12-26T22:24:22.652Z,96.66
2022-12-26T22:26:49.843Z,93.68
2022-12-26T22:29:17.009Z,95.24
2022-12-26T22:31:44.089Z,99.20
2022-12-26T22:34:13.632Z,100.00
2022-12-26T22:36:41.359Z,100.00
2022-12-26T22:39:10.043Z,98.95
2022-12-26T22:41:37.641Z,98.97
2022-12-26T22:44:04.799Z,97.93
2022-12-26T22:46:31.770Z,96.59
2022-12-26T22:48:58.728Z,97.81
2022-12-26T22:51:26.411Z,97.21
2022-12-26T22:53:54.945Z,97.65
2022-12-26T22:56:21.838Z,95.96
2022-12-26T22:58:53.256Z,98.75
2022-12-26T23:01:20.749Z,99.57
2022-12-26T23:03:48.125Z,96.38
2022-12-26T23:06:20.711Z,96.25
2022-12-26T23:08:49.042Z,97.18
2022-12-26T23:11:16.461Z,97.86
2022-12-26T23:13:44.757Z,93.08
2022-12-26T23:16:27.239Z,96.59
2022-12-26T23:19:18.690Z,99.21
2022-12-26T23:21:50.520Z,98.72
2022-12-26T23:24:19.349Z,96.86
2022-12-26T23:26:50.350Z,95.98
2022-12-26T23:29:38.255Z,95.57
2022-12-26T23:32:07.292Z,95.59
2022-12-26T23:34:34.606Z,94.13
2022-12-26T23:37:02.236Z,93.64
2022-12-26T23:39:29.791Z,92.78
2022-12-26T23:41:56.777Z,91.75
2022-12-26T23:44:23.668Z,90.99
2022-12-26T23:46:50.702Z,90.35
2022-12-26T23:49:17.707Z,89.77
2022-12-26T23:51:44.725Z,89.15
2022-12-26T23:54:11.663Z,88.19
2022-12-26T23:56:38.667Z,87.99
2022-12-26T23:59:06.006Z,88.34
